Time;durP1;ratioP1;P1;durP2;ratioP2;P2;SDS_P1;SDS_P2;PMS_P1;PMS_P2;Temp;Humidity;BMP_temperature;BMP_pressure;BME280_temperature;BME280_humidity;BME280_pressure;Samples;Min_cycle;Max_cycle;Signal;HPM_P1;HPM_P2
2022/10/09 00:01:25;;;;;;;5.28;2.30;;;;;;;26.16;35.76;101811.50;5035488;28;20036;-53
2022/10/09 00:03:55;;;;;;;4.03;2.08;;;;;;;26.16;35.85;101805.34;5035551;28;20030;-53
2022/10/09 00:06:26;;;;;;;5.70;2.55;;;;;;;26.19;35.54;101800.16;5035201;28;20034;-54
2022/10/09 00:08:54;;;;;;;5.50;2.25;;;;;;;26.20;35.59;101796.66;5035449;28;20033;-55
2022/10/09 00:11:25;;;;;;;4.68;2.17;;;;;;;26.15;35.73;101793.06;5035109;28;20026;-54
2022/10/09 00:13:55;;;;;;;5.13;2.00;;;;;;;26.15;35.42;101793.94;5035226;28;20486;-56
2022/10/09 00:16:24;;;;;;;6.13;2.28;;;;;;;26.17;35.50;101784.34;5050328;28;20033;-52
2022/10/09 00:18:53;;;;;;;5.18;2.13;;;;;;;26.17;35.29;101788.72;5033388;28;20116;-54
2022/10/09 00:21:23;;;;;;;3.53;1.65;;;;;;;26.13;35.34;101779.91;5034999;28;20032;-53
2022/10/09 00:23:53;;;;;;;4.07;1.60;;;;;;;26.07;35.61;101774.50;5033380;28;20032;-53
2022/10/09 00:26:22;;;;;;;4.28;1.90;;;;;;;26.09;35.32;101773.66;5035385;28;20017;-55
2022/10/09 00:28:50;;;;;;;6.40;2.35;;;;;;;26.06;35.61;101773.59;5050373;28;20026;-54
2022/10/09 00:31:19;;;;;;;2.75;1.50;;;;;;;26.08;35.92;101782.41;5034901;28;20076;-54
2022/10/09 00:33:48;;;;;;;4.55;1.75;;;;;;;26.09;35.28;101775.41;5033920;28;20083;-53
2022/10/09 00:36:19;;;;;;;3.75;1.73;;;;;;;26.09;35.33;101768.41;5034716;28;20552;-52
2022/10/09 00:38:47;;;;;;;3.53;1.73;;;;;;;26.06;35.34;101763.06;5034098;28;20029;-54
2022/10/09 00:41:18;;;;;;;3.10;1.42;;;;;;;26.09;35.56;101775.41;5049936;28;20025;-54
2022/10/09 00:43:53;;;;;;;3.80;1.98;;;;;;;26.07;35.27;101769.25;5034576;28;20441;-53
2022/10/09 00:46:50;;;;;;;5.53;2.20;;;;;;;26.06;35.12;101759.56;5034759;28;20353;-54
2022/10/09 00:49:19;;;;;;;3.28;1.70;;;;;;;26.09;35.53;101760.50;5032949;28;20029;-53
2022/10/09 00:51:47;;;;;;;2.67;1.50;;;;;;;26.08;35.55;101763.13;5029751;28;20406;-55
2022/10/09 00:54:18;;;;;;;2.33;1.33;;;;;;;26.10;35.50;101761.41;5014677;28;20037;-54
2022/10/09 00:56:47;;;;;;;3.13;1.45;;;;;;;26.08;35.40;101756.09;5014764;28;20030;-53
2022/10/09 00:59:15;;;;;;;2.92;1.63;;;;;;;26.09;35.09;101760.50;5013515;28;20030;-53
2022/10/09 01:01:44;;;;;;;4.20;1.52;;;;;;;26.10;35.26;101750.88;5013037;28;20441;-53
2022/10/09 01:04:17;;;;;;;3.53;1.80;;;;;;;26.10;35.42;101753.53;5014838;28;20029;-54
2022/10/09 01:06:53;;;;;;;2.97;1.17;;;;;;;26.05;35.48;101758.72;5014242;28;20038;-54
2022/10/09 01:09:32;;;;;;;2.47;1.25;;;;;;;26.02;35.56;101757.75;5014442;28;20155;-55
2022/10/09 01:12:18;;;;;;;4.10;1.40;;;;;;;26.06;35.40;101756.94;5013626;28;20109;-54
2022/10/09 01:15:12;;;;;;;3.33;1.30;;;;;;;26.04;35.52;101749.06;5029423;28;20080;-55
2022/10/09 01:17:50;;;;;;;2.55;1.15;;;;;;;26.04;35.59;101743.78;5014452;28;20083;-53
2022/10/09 01:20:38;;;;;;;5.32;1.50;;;;;;;26.08;35.37;101739.47;5029239;28;20034;-54
2022/10/09 01:23:25;;;;;;;2.60;1.13;;;;;;;26.07;35.34;101740.31;5013573;28;20112;-55
2022/10/09 01:26:16;;;;;;;3.38;1.58;;;;;;;26.05;35.59;101731.50;5010675;28;20045;-53
2022/10/09 01:28:47;;;;;;;3.92;1.67;;;;;;;26.03;35.36;101723.63;5011411;28;20052;-54
2022/10/09 01:31:18;;;;;;;2.17;1.30;;;;;;;26.01;35.67;101732.31;5028880;28;20052;-54
2022/10/09 01:33:47;;;;;;;3.92;1.58;;;;;;;25.98;35.18;101713.88;5013857;28;20026;-53
2022/10/09 01:36:16;;;;;;;4.30;1.33;;;;;;;26.02;35.53;101718.31;5013961;28;20112;-54
2022/10/09 01:38:45;;;;;;;2.33;1.17;;;;;;;25.98;35.27;101709.50;5012305;28;20040;-53
2022/10/09 01:41:14;;;;;;;3.20;1.20;;;;;;;26.01;35.24;101711.28;5014179;28;20087;-55
2022/10/09 01:43:44;;;;;;;3.05;1.20;;;;;;;25.99;35.52;101706.00;5014051;28;20034;-54
2022/10/09 01:46:32;;;;;;;2.30;1.13;;;;;;;25.96;35.68;101697.19;5014034;28;20237;-54
2022/10/09 01:49:06;;;;;;;2.35;0.90;;;;;;;26.00;35.14;101693.75;5028705;28;20033;-53
2022/10/09 01:51:47;;;;;;;2.00;1.00;;;;;;;25.91;35.54;101687.50;5012329;28;20030;-54
2022/10/09 01:54:18;;;;;;;2.75;1.40;;;;;;;26.00;35.38;101688.47;4996705;28;20156;-54
2022/10/09 01:56:48;;;;;;;2.95;1.40;;;;;;;25.96;35.49;101684.94;4996245;28;20423;-51
2022/10/09 01:59:18;;;;;;;3.50;1.40;;;;;;;25.94;35.27;101677.03;5013856;28;20525;-54
2022/10/09 02:01:47;;;;;;;3.25;1.30;;;;;;;25.93;35.46;101679.63;5013988;28;20479;-53
2022/10/09 02:04:18;;;;;;;2.10;0.95;;;;;;;25.97;35.39;101672.69;5012498;28;20057;-53
2022/10/09 02:06:47;;;;;;;2.30;0.98;;;;;;;25.96;35.49;101660.41;5012219;28;20026;-54
2022/10/09 02:09:16;;;;;;;2.88;1.17;;;;;;;25.95;35.29;101664.75;5012017;28;20033;-53
2022/10/09 02:11:49;;;;;;;2.65;1.02;;;;;;;25.93;35.39;101654.22;5013321;28;20025;-55
2022/10/09 02:14:21;;;;;;;2.42;1.27;;;;;;;25.95;35.53;101656.88;5013360;28;20391;-52
2022/10/09 02:16:58;;;;;;;1.48;0.75;;;;;;;25.85;35.63;101647.09;5013308;28;20491;-54
2022/10/09 02:19:34;;;;;;;2.13;0.93;;;;;;;25.80;35.54;101647.00;5012386;28;20164;-55
2022/10/09 02:22:11;;;;;;;2.03;1.08;;;;;;;25.79;35.76;101640.84;5027990;28;20389;-55
2022/10/09 02:24:40;;;;;;;1.95;0.90;;;;;;;25.78;35.16;101643.47;5013565;28;20026;-54
2022/10/09 02:27:09;;;;;;;1.90;0.93;;;;;;;25.80;35.39;101631.25;5011728;28;20030;-53
2022/10/09 02:29:40;;;;;;;1.95;0.77;;;;;;;25.74;35.69;101632.00;5011670;28;20030;-54
2022/10/09 02:32:08;;;;;;;3.33;1.23;;;;;;;25.68;35.75;101607.38;5013071;28;20096;-55
2022/10/09 02:34:37;;;;;;;2.65;1.00;;;;;;;25.75;35.54;101632.91;5011883;28;20033;-54
2022/10/09 02:37:07;;;;;;;2.38;1.00;;;;;;;25.73;35.70;101614.47;5015966;28;20549;-53
2022/10/09 02:39:36;;;;;;;1.98;0.88;;;;;;;25.79;35.62;101617.22;5017284;28;20049;-54
2022/10/09 02:42:05;;;;;;;2.67;0.93;;;;;;;25.82;35.18;101610.22;5017218;28;20196;-53
2022/10/09 02:44:33;;;;;;;2.72;1.20;;;;;;;25.74;35.65;101605.72;5017325;28;20062;-54
2022/10/09 02:47:02;;;;;;;0.90;0.70;;;;;;;25.69;35.58;101596.91;5017106;28;20026;-53
2022/10/09 02:49:31;;;;;;;2.55;1.00;;;;;;;25.74;35.46;101603.09;5017204;28;20425;-53
2022/10/09 02:51:59;;;;;;;3.08;1.00;;;;;;;25.72;35.25;101589.09;5016798;28;20519;-54
2022/10/09 02:54:28;;;;;;;2.78;1.02;;;;;;;25.77;35.27;101592.63;5017094;28;20025;-54
2022/10/09 02:56:57;;;;;;;3.75;1.00;;;;;;;25.76;35.39;101582.13;5015826;28;20096;-54
2022/10/09 02:59:25;;;;;;;2.97;1.00;;;;;;;25.78;35.65;101583.91;5017255;28;20124;-53
2022/10/09 03:01:54;;;;;;;1.88;0.88;;;;;;;25.81;35.50;101580.47;5016888;28;20395;-54
2022/10/09 03:04:23;;;;;;;2.65;1.25;;;;;;;25.78;35.50;101576.00;5016897;28;20087;-53
2022/10/09 03:06:51;;;;;;;3.05;1.10;;;;;;;25.72;35.68;101573.31;5015807;28;20033;-55
2022/10/09 03:09:20;;;;;;;2.10;0.90;;;;;;;25.70;35.48;101568.88;5016901;28;20025;-54
2022/10/09 03:11:49;;;;;;;6.15;1.10;;;;;;;25.71;35.68;101558.41;5031592;28;20022;-51
2022/10/09 03:14:17;;;;;;;1.30;0.68;;;;;;;25.73;35.51;101563.66;5016310;28;20499;-53
2022/10/09 03:16:46;;;;;;;2.53;0.95;;;;;;;25.68;35.58;101553.09;5016688;28;20383;-55
2022/10/09 03:19:15;;;;;;;3.15;1.05;;;;;;;25.70;35.58;101558.38;5016648;28;20026;-52
2022/10/09 03:21:43;;;;;;;2.45;1.48;;;;;;;25.65;35.54;101558.31;5016410;28;20088;-53
2022/10/09 03:24:12;;;;;;;2.65;0.80;;;;;;;25.57;35.50;101529.28;5016170;28;20135;-54
2022/10/09 03:26:40;;;;;;;1.27;0.60;;;;;;;25.68;35.69;101547.84;5016326;28;20032;-53
2022/10/09 03:29:09;;;;;;;3.22;1.00;;;;;;;25.69;35.51;101552.25;5016078;28;20487;-54
2022/10/09 03:31:37;;;;;;;1.45;0.80;;;;;;;25.71;35.51;101552.25;5016333;28;20030;-55
2022/10/09 03:34:06;;;;;;;2.58;0.80;;;;;;;25.65;35.65;101542.53;5016416;28;20038;-54
2022/10/09 03:36:34;;;;;;;2.25;0.85;;;;;;;25.70;35.41;101534.72;5016307;28;20384;-52
2022/10/09 03:39:03;;;;;;;2.10;1.05;;;;;;;25.70;35.47;101542.59;5016084;28;20054;-54
2022/10/09 03:41:32;;;;;;;1.20;0.73;;;;;;;25.63;35.45;101537.28;5014946;28;20442;-54
2022/10/09 03:44:00;;;;;;;3.70;0.73;;;;;;;25.58;35.56;101522.28;5016323;28;20435;-54
2022/10/09 03:46:29;;;;;;;3.40;1.17;;;;;;;25.68;35.63;101539.97;5015668;28;20490;-53
2022/10/09 03:48:57;;;;;;;3.13;1.20;;;;;;;25.68;35.58;101524.19;5016239;28;20029;-55
2022/10/09 03:51:25;;;;;;;39.90;3.25;;;;;;;25.70;35.38;101532.09;5014007;28;20056;-52
2022/10/09 03:53:54;;;;;;;7.95;1.20;;;;;;;25.65;35.68;101528.53;5016406;28;20498;-54
2022/10/09 03:56:22;;;;;;;2.72;1.30;;;;;;;25.63;35.76;101526.75;5014638;28;20113;-53
2022/10/09 03:58:50;;;;;;;2.28;0.70;;;;;;;25.63;35.42;101520.59;5015924;28;20029;-54
2022/10/09 04:01:20;;;;;;;1.33;0.80;;;;;;;25.67;35.61;101517.16;5015850;28;20030;-55
2022/10/09 04:03:48;;;;;;;1.38;0.60;;;;;;;25.62;35.60;101517.13;5015622;28;20029;-54
2022/10/09 04:06:17;;;;;;;1.48;0.80;;;;;;;25.55;35.52;101519.63;5015728;28;20032;-51
2022/10/09 04:08:49;;;;;;;1.52;0.73;;;;;;;25.56;35.68;101516.13;5015609;28;20543;-55
2022/10/09 04:11:18;;;;;;;2.13;0.75;;;;;;;25.57;35.62;101516.16;5015823;28;20026;-54
2022/10/09 04:13:46;;;;;;;2.72;0.70;;;;;;;25.48;35.68;101493.25;5015566;28;20022;-54
2022/10/09 04:16:15;;;;;;;2.10;1.10;;;;;;;25.56;35.71;101513.50;5015521;28;20038;-55
2022/10/09 04:18:44;;;;;;;1.40;0.70;;;;;;;25.57;35.81;101500.38;5015568;28;20101;-54
2022/10/09 04:21:12;;;;;;;2.45;0.90;;;;;;;25.55;35.83;101495.97;5015479;28;20168;-55
2022/10/09 04:23:41;;;;;;;3.13;1.05;;;;;;;25.55;35.73;101496.84;5015273;28;20026;-55
2022/10/09 04:26:12;;;;;;;1.60;0.80;;;;;;;25.51;35.58;101495.03;5015110;28;20037;-54
2022/10/09 04:28:40;;;;;;;1.73;0.80;;;;;;;25.55;35.92;101486.34;5015261;28;20176;-52
2022/10/09 04:31:09;;;;;;;2.88;1.02;;;;;;;25.55;35.75;101494.22;5015115;28;20033;-55
2022/10/09 04:33:38;;;;;;;2.35;0.90;;;;;;;25.51;35.84;101486.28;5015230;28;20480;-54
2022/10/09 04:36:06;;;;;;;2.35;0.90;;;;;;;25.38;36.04;101469.41;5014973;28;20042;-54
2022/10/09 04:38:35;;;;;;;2.30;0.82;;;;;;;25.51;35.94;101481.91;5015142;28;20026;-54
2022/10/09 04:41:05;;;;;;;2.72;0.80;;;;;;;25.56;35.72;101481.97;5015053;28;20058;-54
2022/10/09 04:43:34;;;;;;;2.33;0.68;;;;;;;25.65;35.46;101478.59;5013733;28;20069;-53
2022/10/09 04:46:08;;;;;;;1.88;0.88;;;;;;;25.60;35.64;101484.69;5014873;28;20026;-54
2022/10/09 04:48:41;;;;;;;1.63;0.60;;;;;;;25.54;35.36;101473.19;5015056;28;20033;-54
2022/10/09 04:51:11;;;;;;;3.42;0.75;;;;;;;25.52;35.84;101473.16;5015087;28;20475;-54
2022/10/09 04:53:40;;;;;;;1.90;0.90;;;;;;;25.46;35.75;101471.31;5014728;28;20076;-53
2022/10/09 04:56:10;;;;;;;3.88;1.00;;;;;;;25.50;35.88;101468.75;5014733;28;20144;-51
2022/10/09 04:58:40;;;;;;;1.27;0.88;;;;;;;25.52;35.77;101467.91;5013802;28;20037;-53
2022/10/09 05:01:14;;;;;;;2.42;0.70;;;;;;;25.55;35.39;101467.09;5014159;28;20538;-54
2022/10/09 05:03:43;;;;;;;4.43;1.10;;;;;;;25.51;35.73;101453.00;5014642;28;20061;-54
2022/10/09 05:06:12;;;;;;;1.35;0.70;;;;;;;25.51;35.88;101460.88;5013194;28;20484;-55
2022/10/09 05:08:41;;;;;;;1.60;0.80;;;;;;;25.49;35.83;101454.72;5014420;28;20022;-53
2022/10/09 05:11:12;;;;;;;2.40;0.90;;;;;;;25.46;35.96;101457.31;5014210;28;20109;-54
2022/10/09 05:13:44;;;;;;;1.27;0.70;;;;;;;25.46;35.82;101445.06;5014334;28;20376;-54
2022/10/09 05:16:14;;;;;;;2.78;0.95;;;;;;;25.47;35.91;101441.56;5014274;28;20041;-54
2022/10/09 05:18:45;;;;;;;2.20;0.75;;;;;;;25.47;35.85;101445.97;5012700;28;20479;-54
2022/10/09 05:21:14;;;;;;;2.45;0.70;;;;;;;25.50;35.60;101445.09;5012919;28;20030;-51
2022/10/09 05:23:42;;;;;;;2.28;0.85;;;;;;;25.46;35.64;101444.19;5014428;28;20049;-51
2022/10/09 05:26:18;;;;;;;2.88;0.90;;;;;;;25.44;35.96;101435.41;5014026;28;20091;-53
2022/10/09 05:28:46;;;;;;;2.85;0.90;;;;;;;25.48;35.99;101438.09;5014438;28;20114;-55
2022/10/09 05:31:20;;;;;;;1.83;0.80;;;;;;;25.43;35.92;101439.75;5029329;28;20018;-55
2022/10/09 05:33:48;;;;;;;3.53;0.75;;;;;;;25.39;35.63;101426.53;5014084;28;20484;-53
2022/10/09 05:36:20;;;;;;;2.25;0.85;;;;;;;25.43;35.74;101434.50;5012898;28;20104;-51
2022/10/09 05:38:51;;;;;;;1.42;0.80;;;;;;;25.42;35.78;101431.88;5014078;28;20030;-54
2022/10/09 05:41:19;;;;;;;1.45;0.70;;;;;;;25.40;35.77;101426.53;5014194;28;20097;-52
2022/10/09 05:43:47;;;;;;;1.00;0.70;;;;;;;25.38;35.77;101425.66;5014219;28;20026;-53
2022/10/09 05:46:18;;;;;;;2.65;0.85;;;;;;;25.39;36.02;101416.03;5013801;28;20033;-54
2022/10/09 05:48:53;;;;;;;3.95;0.90;;;;;;;25.36;35.96;101415.97;5013845;28;20137;-55
2022/10/09 05:51:23;;;;;;;2.97;0.80;;;;;;;25.41;36.03;101423.06;5013432;28;20483;-54
2022/10/09 05:53:51;;;;;;;3.22;0.80;;;;;;;25.44;35.75;101417.88;5013962;28;20036;-53
2022/10/09 05:56:23;;;;;;;2.92;1.13;;;;;;;25.46;35.63;101420.56;5013836;28;20025;-54
2022/10/09 05:58:53;;;;;;;2.58;1.10;;;;;;;25.44;35.72;101420.50;5013696;28;20127;-54
2022/10/09 06:01:23;;;;;;;2.25;0.80;;;;;;;25.39;35.83;101418.66;5013693;28;20034;-53
2022/10/09 06:03:53;;;;;;;2.30;1.05;;;;;;;25.38;35.79;101417.78;5013410;28;20026;-54
2022/10/09 06:06:23;;;;;;;2.45;0.90;;;;;;;25.39;35.93;101422.19;5013627;28;20029;-54
2022/10/09 06:08:52;;;;;;;1.77;0.55;;;;;;;25.37;36.08;101415.13;5013485;28;20034;-53
2022/10/09 06:11:22;;;;;;;1.17;0.70;;;;;;;25.40;35.91;101428.31;5012807;28;20078;-54
2022/10/09 06:13:52;;;;;;;1.55;0.85;;;;;;;25.41;36.09;101416.94;5013786;28;20412;-53
2022/10/09 06:16:21;;;;;;;1.98;0.90;;;;;;;25.41;36.13;101419.56;5013452;28;20049;-54
2022/10/09 06:18:49;;;;;;;2.92;1.05;;;;;;;25.40;35.75;101409.91;5012228;28;20034;-54
2022/10/09 06:21:18;;;;;;;2.80;1.30;;;;;;;25.43;35.75;101402.13;5013368;28;20434;-54
2022/10/09 06:23:51;;;;;;;2.95;0.90;;;;;;;25.44;36.18;101411.75;5012961;28;20037;-54
2022/10/09 06:26:20;;;;;;;1.70;0.82;;;;;;;25.44;35.82;101412.63;5012948;28;20079;-55
2022/10/09 06:28:49;;;;;;;2.22;1.30;;;;;;;25.44;36.07;101409.13;5013466;28;20026;-53
2022/10/09 06:31:21;;;;;;;1.45;0.70;;;;;;;25.43;35.76;101402.13;5013289;28;20029;-54
2022/10/09 06:33:50;;;;;;;1.92;0.90;;;;;;;25.43;35.87;101404.75;5013104;28;20057;-53
2022/10/09 06:36:21;;;;;;;3.80;0.90;;;;;;;25.42;36.22;101400.34;5012481;28;20061;-50
2022/10/09 06:38:50;;;;;;;5.00;1.13;;;;;;;25.38;36.15;101409.91;5013288;28;20488;-54
2022/10/09 06:41:22;;;;;;;1.58;0.70;;;;;;;25.39;36.35;101410.78;5012206;28;20510;-54
2022/10/09 06:43:52;;;;;;;4.05;0.93;;;;;;;25.34;35.86;101403.72;5013111;28;20034;-52
2022/10/09 06:46:22;;;;;;;2.28;1.05;;;;;;;25.40;35.83;101404.66;5012904;28;20030;-54
2022/10/09 06:48:50;;;;;;;3.15;1.10;;;;;;;25.38;36.21;101404.66;5028202;28;20476;-51
2022/10/09 06:51:21;;;;;;;2.55;0.85;;;;;;;25.40;36.00;101415.16;5013046;28;20529;-54
2022/10/09 06:53:52;;;;;;;3.45;0.80;;;;;;;25.45;36.08;101421.41;5013060;28;20046;-54
2022/10/09 06:56:22;;;;;;;3.30;0.80;;;;;;;25.44;36.27;101431.03;5013344;28;20026;-52
2022/10/09 06:58:51;;;;;;;2.30;0.65;;;;;;;25.42;36.08;101426.63;5012607;28;20033;-53
2022/10/09 07:01:23;;;;;;;1.75;0.70;;;;;;;25.39;36.23;101427.44;5012830;28;20117;-53
2022/10/09 07:04:00;;;;;;;3.00;0.88;;;;;;;25.39;36.08;101432.69;5013188;28;20033;-53
2022/10/09 07:06:31;;;;;;;3.90;1.33;;;;;;;25.33;36.12;101422.94;5012868;28;20034;-54
2022/10/09 07:09:01;;;;;;;1.30;0.75;;;;;;;25.37;36.10;101430.88;5013079;28;20025;-53
2022/10/09 07:11:36;;;;;;;3.50;0.80;;;;;;;25.34;36.46;101432.59;5012686;28;20104;-53
2022/10/09 07:14:07;;;;;;;2.35;0.80;;;;;;;25.41;36.36;101440.56;5030005;28;20032;-53
2022/10/09 07:16:42;;;;;;;3.33;0.88;;;;;;;25.44;35.97;101449.41;5031964;28;20621;-51
2022/10/09 07:19:10;;;;;;;2.20;0.80;;;;;;;25.44;35.90;101449.41;5032647;28;20030;-52
2022/10/09 07:21:41;;;;;;;1.95;0.82;;;;;;;25.49;35.86;101449.47;5048257;28;20030;-53
2022/10/09 07:24:09;;;;;;;3.90;1.02;;;;;;;25.45;35.92;101442.44;5034865;28;20032;-53
2022/10/09 07:26:40;;;;;;;2.70;0.80;;;;;;;25.47;36.02;101441.56;5034681;28;20021;-52
2022/10/09 07:29:10;;;;;;;4.30;0.90;;;;;;;25.53;36.03;101442.53;5036211;28;20465;-54
2022/10/09 07:31:38;;;;;;;4.63;1.00;;;;;;;25.52;36.10;101436.38;5034614;28;20084;-55
2022/10/09 07:34:06;;;;;;;5.95;0.80;;;;;;;25.58;35.98;101439.09;5032566;28;20033;-52
2022/10/09 07:36:34;;;;;;;4.43;1.00;;;;;;;25.56;35.89;101429.44;5033925;28;20053;-53
2022/10/09 07:39:02;;;;;;;2.15;0.85;;;;;;;25.60;35.91;101425.97;5014003;28;20402;-54
2022/10/09 07:41:31;;;;;;;2.22;1.00;;;;;;;25.59;36.37;101421.56;5015397;28;20029;-55
2022/10/09 07:44:00;;;;;;;3.67;1.00;;;;;;;25.56;36.25;101422.44;5014999;28;20037;-55
2022/10/09 07:46:28;;;;;;;2.70;1.08;;;;;;;25.59;36.17;101425.09;5019043;28;20026;-54
2022/10/09 07:48:55;;;;;;;2.85;0.80;;;;;;;25.60;36.39;101421.63;5015462;28;20036;-52
2022/10/09 07:51:26;;;;;;;4.13;0.88;;;;;;;25.65;36.07;101418.19;5014944;28;20426;-55
2022/10/09 07:53:56;;;;;;;4.32;0.80;;;;;;;25.70;36.24;101406.84;5014745;28;20030;-54
2022/10/09 07:56:26;;;;;;;1.48;0.80;;;;;;;25.72;36.36;101404.25;5019027;28;20041;-55
2022/10/09 07:58:56;;;;;;;5.47;1.15;;;;;;;25.78;35.95;101417.47;5019238;28;20125;-53
2022/10/09 08:01:24;;;;;;;5.15;0.80;;;;;;;25.84;36.09;101414.03;5014930;28;20373;-54
2022/10/09 08:03:51;;;;;;;2.63;0.90;;;;;;;25.85;36.09;101410.53;5014872;28;20018;-52
2022/10/09 08:06:18;;;;;;;2.40;1.08;;;;;;;25.89;36.17;101412.34;5018833;28;20025;-53
2022/10/09 08:08:50;;;;;;;4.68;1.08;;;;;;;25.85;36.04;101410.53;5014883;28;20030;-52
2022/10/09 08:11:18;;;;;;;4.18;0.98;;;;;;;25.88;36.19;101407.94;5011272;28;20381;-54
2022/10/09 08:13:47;;;;;;;5.50;0.82;;;;;;;25.88;36.14;101400.94;5014493;28;20076;-54
2022/10/09 08:16:16;;;;;;;2.53;1.08;;;;;;;25.92;36.23;101391.31;5014676;28;20034;-54
2022/10/09 08:18:45;;;;;;;1.85;0.85;;;;;;;25.91;36.19;101384.31;5014214;28;20415;-51
2022/10/09 08:21:17;;;;;;;5.53;0.77;;;;;;;25.95;36.20;101383.47;5018416;28;20026;-54
2022/10/09 08:23:44;;;;;;;3.40;1.15;;;;;;;25.99;36.21;101382.66;5014636;28;20029;-53
2022/10/09 08:26:18;;;;;;;2.67;1.00;;;;;;;26.04;35.97;101387.97;5017210;28;20040;-54
2022/10/09 08:28:51;;;;;;;4.70;1.05;;;;;;;26.05;36.08;101382.75;5014806;28;20084;-54
2022/10/09 08:31:20;;;;;;;5.95;0.80;;;;;;;26.09;36.10;101387.13;5014216;28;20423;-54
2022/10/09 08:33:52;;;;;;;2.70;0.70;;;;;;;26.16;35.88;101371.47;5023736;28;20091;-50
2022/10/09 08:36:22;;;;;;;3.42;0.82;;;;;;;26.21;35.76;101375.03;5014226;28;20026;-51
2022/10/09 08:38:50;;;;;;;3.13;0.95;;;;;;;26.20;35.60;101368.03;5014348;28;20447;-50
2022/10/09 08:41:28;;;;;;;3.10;1.30;;;;;;;26.24;35.82;101373.31;5013570;28;20045;-50
2022/10/09 08:44:02;;;;;;;2.13;0.80;;;;;;;26.26;35.84;101367.19;5010215;28;20037;-53
2022/10/09 08:46:55;;;;;;;1.65;0.70;;;;;;;26.28;35.88;101357.56;5013471;28;20038;-52
2022/10/09 08:49:32;;;;;;;3.55;0.88;;;;;;;26.26;35.70;101361.94;5008953;28;20069;-49
2022/10/09 08:52:21;;;;;;;1.95;0.77;;;;;;;26.28;35.47;101355.81;5012318;28;20054;-53
2022/10/09 08:54:49;;;;;;;3.63;0.98;;;;;;;26.30;35.73;101350.59;5010884;28;20120;-54
2022/10/09 08:57:17;;;;;;;5.38;1.20;;;;;;;26.33;35.78;101347.94;5016422;28;20030;-52
2022/10/09 08:59:45;;;;;;;5.53;1.42;;;;;;;26.36;35.75;101353.25;5012680;28;20037;-53
2022/10/09 09:02:14;;;;;;;8.20;1.02;;;;;;;26.39;35.80;101353.28;5013477;28;20519;-53
2022/10/09 09:05:00;;;;;;;4.90;1.05;;;;;;;26.37;35.65;101352.38;5011590;28;20034;-52
2022/10/09 09:07:42;;;;;;;6.82;0.98;;;;;;;26.39;35.80;101348.03;5014455;28;20088;-53
2022/10/09 09:10:46;;;;;;;4.50;1.05;;;;;;;26.43;35.78;101348.91;5009306;28;20022;-54
2022/10/09 09:13:52;;;;;;;4.35;1.23;;;;;;;26.46;35.62;101355.13;5009413;28;20018;-53
2022/10/09 09:16:43;;;;;;;2.28;0.80;;;;;;;26.44;35.68;101354.22;5013046;28;20048;-51
2022/10/09 09:19:20;;;;;;;1.77;0.68;;;;;;;26.47;35.73;101353.34;5014409;28;20107;-54
2022/10/09 09:21:50;;;;;;;6.00;1.13;;;;;;;26.50;35.75;101343.72;5011903;28;20033;-51
2022/10/09 09:24:22;;;;;;;4.35;1.30;;;;;;;26.52;35.74;101344.63;5016719;28;20088;-51
2022/10/09 09:26:53;;;;;;;3.90;1.55;;;;;;;26.52;35.54;101344.63;5016933;28;20033;-55
2022/10/09 09:29:22;;;;;;;5.03;1.10;;;;;;;26.53;35.81;101330.59;5016348;28;20431;-54
2022/10/09 09:31:55;;;;;;;2.88;1.08;;;;;;;26.52;35.83;101320.94;5017344;28;20021;-55
2022/10/09 09:34:43;;;;;;;3.88;1.38;;;;;;;26.55;35.76;101317.47;5008401;28;20037;-55
2022/10/09 09:37:11;;;;;;;3.13;0.80;;;;;;;26.59;35.73;101315.75;5017327;28;20022;-53
2022/10/09 09:39:40;;;;;;;2.08;1.15;;;;;;;26.60;35.63;101315.72;5013252;28;20030;-55
2022/10/09 09:42:18;;;;;;;3.70;1.30;;;;;;;26.61;35.67;101306.97;5013809;28;20026;-55
2022/10/09 09:44:49;;;;;;;2.03;0.93;;;;;;;26.61;35.74;101308.75;5012479;28;20060;-54
2022/10/09 09:47:24;;;;;;;3.70;1.23;;;;;;;26.62;35.77;101300.84;5015277;28;20030;-55
2022/10/09 09:50:01;;;;;;;4.22;1.15;;;;;;;26.61;35.77;101303.47;5009010;28;20033;-52
2022/10/09 09:52:35;;;;;;;4.20;1.02;;;;;;;26.58;35.80;101293.78;5015216;28;20132;-54
2022/10/09 09:55:02;;;;;;;2.03;0.90;;;;;;;26.63;35.71;101286.81;5009789;28;20033;-52
2022/10/09 09:57:34;;;;;;;5.07;1.35;;;;;;;26.69;35.69;101291.25;5015557;28;20052;-54
2022/10/09 10:00:22;;;;;;;3.58;1.20;;;;;;;26.72;35.54;101288.63;5008415;28;20131;-52
2022/10/09 10:03:00;;;;;;;2.00;1.00;;;;;;;26.76;35.32;101293.06;5010518;28;20018;-55
2022/10/09 10:05:28;;;;;;;2.33;1.08;;;;;;;26.77;35.33;101280.75;5010612;28;20049;-50
2022/10/09 10:07:56;;;;;;;5.25;1.02;;;;;;;26.76;35.26;101287.78;5011541;28;20030;-50
2022/10/09 10:10:26;;;;;;;2.83;1.25;;;;;;;26.77;35.49;101271.13;5009913;28;20084;-54
2022/10/09 10:12:56;;;;;;;4.63;1.02;;;;;;;26.78;35.43;101280.78;5011223;28;20461;-53
2022/10/09 10:15:30;;;;;;;4.38;1.27;;;;;;;26.82;35.32;101279.06;5013035;28;20032;-52
2022/10/09 10:18:14;;;;;;;2.93;0.87;;;;;;;26.76;35.48;101272.00;5015373;28;20038;-50
2022/10/09 10:20:48;;;;;;;3.53;0.90;;;;;;;26.78;35.46;101270.25;5007161;28;20049;-53
2022/10/09 10:23:25;;;;;;;11.07;1.63;;;;;;;26.78;35.61;101272.88;5007029;28;20069;-54
2022/10/09 10:25:56;;;;;;;3.90;1.13;;;;;;;26.77;35.32;101273.75;5009417;28;20129;-50
2022/10/09 10:28:29;;;;;;;3.20;1.20;;;;;;;26.79;35.31;101261.53;5026200;28;20029;-54
2022/10/09 10:30:57;;;;;;;3.47;0.93;;;;;;;26.74;35.67;101257.03;5009678;28;20025;-54
2022/10/09 10:33:29;;;;;;;4.35;1.25;;;;;;;26.75;35.37;101250.91;5011076;28;20471;-54
2022/10/09 10:35:57;;;;;;;3.35;1.02;;;;;;;26.75;35.44;101241.28;5011662;28;20026;-54
2022/10/09 10:38:29;;;;;;;2.47;0.90;;;;;;;26.80;35.63;101234.34;5011843;28;20069;-52
2022/10/09 10:41:28;;;;;;;5.35;1.27;;;;;;;26.77;35.62;101231.66;4995519;28;20472;-54
2022/10/09 10:44:02;;;;;;;2.05;1.02;;;;;;;26.79;35.61;101229.00;5008662;28;20038;-55
2022/10/09 10:46:47;;;;;;;1.92;0.77;;;;;;;26.76;35.69;101232.53;5012898;28;20479;-54
2022/10/09 10:49:20;;;;;;;3.22;1.08;;;;;;;26.79;35.47;101229.00;5007646;28;20518;-55
2022/10/09 10:52:08;;;;;;;4.80;1.08;;;;;;;26.81;35.39;101237.84;5012375;28;20050;-56
2022/10/09 10:54:40;;;;;;;4.05;1.15;;;;;;;26.82;35.60;101229.94;5003418;28;20578;-55
2022/10/09 10:57:21;;;;;;;5.43;1.05;;;;;;;26.79;35.40;101223.75;5016274;28;20022;-54
2022/10/09 10:59:53;;;;;;;3.08;1.17;;;;;;;26.82;35.68;101227.31;5011461;28;20023;-54
2022/10/09 11:02:31;;;;;;;3.85;1.05;;;;;;;26.82;35.32;101219.41;5016137;28;20057;-53
2022/10/09 11:05:11;;;;;;;3.13;1.42;;;;;;;26.81;35.73;101219.41;5015528;28;20042;-54
2022/10/09 11:08:16;;;;;;;4.05;1.17;;;;;;;26.80;35.60;101215.91;5019018;28;20026;-55
2022/10/09 11:11:13;;;;;;;1.65;0.70;;;;;;;26.86;35.70;101215.06;5014826;28;20040;-54
2022/10/09 11:13:54;;;;;;;2.78;1.00;;;;;;;26.83;35.49;101213.28;5010855;28;20030;-53
2022/10/09 11:16:35;;;;;;;2.70;0.82;;;;;;;26.89;35.55;101215.03;5016708;28;20068;-53
2022/10/09 11:19:06;;;;;;;2.10;0.68;;;;;;;26.90;35.44;101214.19;5012433;28;20407;-54
2022/10/09 11:21:46;;;;;;;3.22;1.05;;;;;;;26.84;35.65;101207.13;5014818;28;20391;-54
2022/10/09 11:24:36;;;;;;;1.38;0.85;;;;;;;26.87;35.54;101205.41;5015255;28;20034;-53
2022/10/09 11:27:17;;;;;;;2.38;1.05;;;;;;;26.89;35.23;101199.25;5019935;28;20034;-56
2022/10/09 11:30:07;;;;;;;4.30;1.08;;;;;;;26.91;35.23;101207.19;5021329;28;20204;-56
2022/10/09 11:32:50;;;;;;;2.13;1.15;;;;;;;26.90;35.39;101200.16;5011754;28;20499;-54
2022/10/09 11:35:22;;;;;;;3.38;1.20;;;;;;;26.89;35.50;101201.88;5014111;28;20030;-55
2022/10/09 11:38:03;;;;;;;3.47;1.50;;;;;;;26.88;35.39;101197.53;5019574;28;20467;-55
2022/10/09 11:40:34;;;;;;;2.40;0.80;;;;;;;26.90;35.58;101197.53;5017678;28;20053;-55
2022/10/09 11:43:12;;;;;;;3.40;1.27;;;;;;;26.87;35.34;101187.88;5014149;28;20045;-54
2022/10/09 11:45:46;;;;;;;4.95;1.23;;;;;;;26.87;35.32;101189.59;5014874;28;20034;-54
2022/10/09 11:48:50;;;;;;;3.75;1.15;;;;;;;26.82;35.28;101187.81;5018210;28;20164;-54